Terminal Aerodrome Forecast
Issued by NWS

Home | Current Version | Previous Version | Text Only | Print | Product List | Glossary On
Versions: 1 2 3 4 5 6 7 8 9 10 11 12
000
FTUS45 KABQ 281138
TAFAEG
TAF
KAEG 281138Z 2812/2912 36008KT P6SM FEW050
      TEMPO 2812/2816 05009KT
     FM281600 12008KT P6SM SCT100
     FM290000 16009KT P6SM VCSH BKN100
     FM290300 16009KT P6SM VCTS BKN100CB
     FM290600 14007KT P6SM BKN100
     FM291000 36006KT P6SM SCT100=

USA.gov is the U.S. government's official web portal to all federal, state and local government web resources and services.